Time;durP1;ratioP1;P1;durP2;ratioP2;P2;SDS_P1;SDS_P2;PMS_P1;PMS_P2;Temp;Humidity;BMP_temperature;BMP_pressure;BME280_temperature;BME280_humidity;BME280_pressure;Samples;Min_cycle;Max_cycle;Signal;HPM_P1;HPM_P2
2022/11/13 00:02:24;;;;;;;22.48;4.10;;;9.60;99.90;;;;;;4941926;28;20077;-67
2022/11/13 00:05:10;;;;;;;15.00;5.00;;;9.60;99.90;;;;;;4943287;28;20257;-66
2022/11/13 00:07:55;;;;;;;11.77;3.42;;;9.50;99.90;;;;;;4940024;28;20493;-67
2022/11/13 00:10:41;;;;;;;18.45;3.30;;;9.50;99.90;;;;;;4938258;28;20122;-68
2022/11/13 00:13:26;;;;;;;19.92;6.35;;;9.40;99.90;;;;;;4944255;28;20170;-66
2022/11/13 00:16:17;;;;;;;9.45;3.15;;;9.40;99.90;;;;;;4946758;28;20822;-68
2022/11/13 00:19:03;;;;;;;13.85;4.28;;;9.40;99.90;;;;;;4943895;28;20421;-65
2022/11/13 00:21:48;;;;;;;9.85;3.58;;;9.30;99.90;;;;;;4949409;28;20105;-66
2022/11/13 00:24:33;;;;;;;8.57;3.03;;;9.20;99.90;;;;;;4949080;28;20066;-66
2022/11/13 00:27:19;;;;;;;10.88;3.22;;;9.10;99.90;;;;;;4943551;28;20070;-68
2022/11/13 00:30:05;;;;;;;10.80;3.05;;;9.00;99.90;;;;;;4940596;28;20045;-66
2022/11/13 00:32:50;;;;;;;12.85;3.28;;;8.90;99.90;;;;;;4946331;28;20050;-66
2022/11/13 00:35:36;;;;;;;15.38;3.10;;;8.90;99.90;;;;;;4943322;28;20135;-69
2022/11/13 00:38:21;;;;;;;15.50;3.80;;;8.70;99.90;;;;;;4942860;28;20172;-65
2022/11/13 00:41:07;;;;;;;10.52;3.97;;;8.70;99.90;;;;;;4947989;28;20054;-65
2022/11/13 00:43:52;;;;;;;10.93;3.75;;;8.50;99.90;;;;;;4948949;28;20097;-69
2022/11/13 00:46:38;;;;;;;4.68;2.70;;;8.50;99.90;;;;;;4938739;28;20121;-66
2022/11/13 00:49:23;;;;;;;5.78;2.40;;;8.50;99.90;;;;;;4933951;28;20663;-66
2022/11/13 00:52:08;;;;;;;6.28;2.88;;;8.40;99.90;;;;;;4951026;28;20050;-69
2022/11/13 00:54:54;;;;;;;8.32;2.58;;;8.20;99.90;;;;;;4951211;28;20058;-67
2022/11/13 00:57:40;;;;;;;5.18;2.38;;;8.10;99.90;;;;;;4951704;28;20215;-69
2022/11/13 01:00:25;;;;;;;9.00;2.60;;;8.10;99.90;;;;;;4947970;28;20139;-71
2022/11/13 01:03:13;;;;;;;5.63;2.10;;;8.00;99.90;;;;;;4945333;28;20046;-68
2022/11/13 01:05:59;;;;;;;6.22;2.65;;;7.90;99.90;;;;;;4943652;28;20058;-74
2022/11/13 01:08:45;;;;;;;6.53;2.88;;;7.80;99.90;;;;;;4948554;28;20178;-67
2022/11/13 01:11:30;;;;;;;4.80;3.05;;;7.80;99.90;;;;;;4947702;28;20055;-66
2022/11/13 01:14:15;;;;;;;10.55;3.33;;;7.70;99.90;;;;;;4950689;28;20148;-75
2022/11/13 01:17:01;;;;;;;7.28;2.92;;;7.70;99.90;;;;;;4951741;28;20050;-67
2022/11/13 01:19:47;;;;;;;6.45;2.72;;;7.50;99.90;;;;;;4951740;28;20054;-68
2022/11/13 01:22:32;;;;;;;10.20;4.00;;;7.50;99.90;;;;;;4946314;28;20589;-66
2022/11/13 01:25:18;;;;;;;6.03;2.28;;;7.40;99.90;;;;;;4946648;28;20078;-66
2022/11/13 01:28:03;;;;;;;5.05;2.72;;;7.40;99.90;;;;;;4950386;28;20069;-68
2022/11/13 01:30:49;;;;;;;14.10;2.63;;;7.20;99.90;;;;;;4947367;28;20497;-70
2022/11/13 01:33:34;;;;;;;11.13;3.42;;;7.20;99.90;;;;;;4948926;28;20068;-66
2022/11/13 01:36:25;;;;;;;7.90;3.10;;;7.20;99.90;;;;;;4949543;28;20062;-66
2022/11/13 01:39:11;;;;;;;10.13;3.30;;;7.00;99.90;;;;;;4951651;28;20078;-65
2022/11/13 01:41:57;;;;;;;5.82;3.10;;;7.00;99.90;;;;;;4952057;28;20054;-71
2022/11/13 01:44:53;;;;;;;10.60;2.92;;;7.00;99.90;;;;;;4951168;28;20045;-66
2022/11/13 01:47:39;;;;;;;12.40;3.00;;;7.00;99.90;;;;;;4950513;28;20070;-67
2022/11/13 01:50:25;;;;;;;7.97;2.58;;;6.90;99.90;;;;;;4943449;28;20525;-68
2022/11/13 01:53:10;;;;;;;12.88;3.38;;;6.90;99.90;;;;;;4953112;28;20154;-66
2022/11/13 01:55:55;;;;;;;7.82;2.95;;;6.80;99.90;;;;;;4952824;28;20054;-72
2022/11/13 01:58:45;;;;;;;5.30;2.28;;;6.70;99.90;;;;;;4937927;28;20070;-66
2022/11/13 02:01:30;;;;;;;9.25;3.40;;;6.70;99.90;;;;;;4948814;28;20465;-65
2022/11/13 02:04:15;;;;;;;6.28;2.92;;;6.70;99.90;;;;;;4943012;28;20412;-68
2022/11/13 02:07:12;;;;;;;13.13;2.40;;;6.60;99.90;;;;;;4946237;28;20090;-69
2022/11/13 02:09:58;;;;;;;5.70;2.60;;;6.60;99.90;;;;;;4943497;28;20142;-67
2022/11/13 02:12:50;;;;;;;29.95;3.70;;;6.50;99.90;;;;;;4939670;28;20395;-66
2022/11/13 02:15:36;;;;;;;2.13;1.70;;;6.50;99.90;;;;;;4936286;28;20501;-66
2022/11/13 02:18:22;;;;;;;6.85;2.60;;;6.50;99.90;;;;;;4946545;28;20126;-66
2022/11/13 02:21:12;;;;;;;4.43;2.55;;;6.50;99.90;;;;;;4950159;28;20378;-69
2022/11/13 02:24:16;;;;;;;4.55;2.50;;;6.50;99.90;;;;;;4952410;28;20058;-70
2022/11/13 02:27:06;;;;;;;2.35;1.83;;;6.50;99.90;;;;;;4949212;28;20053;-66
2022/11/13 02:29:51;;;;;;;2.67;1.98;;;6.50;99.90;;;;;;4948338;28;20046;-66
2022/11/13 02:32:46;;;;;;;3.38;2.00;;;6.40;99.90;;;;;;4948119;28;20515;-70
2022/11/13 02:35:35;;;;;;;2.95;2.10;;;6.40;99.90;;;;;;4949231;28;20062;-70
2022/11/13 02:38:20;;;;;;;3.55;2.13;;;6.40;99.90;;;;;;4946230;28;20106;-66
2022/11/13 02:41:06;;;;;;;3.30;1.40;;;6.40;99.90;;;;;;4950243;28;20058;-66
2022/11/13 02:43:51;;;;;;;2.67;2.20;;;6.40;99.90;;;;;;4940020;28;20045;-69
2022/11/13 02:46:37;;;;;;;5.65;2.55;;;6.30;99.90;;;;;;4946938;28;20130;-68
2022/11/13 02:49:22;;;;;;;3.38;2.20;;;6.30;99.90;;;;;;4941144;28;20078;-65
2022/11/13 02:52:08;;;;;;;3.05;1.95;;;6.30;99.90;;;;;;4941691;28;20066;-66
2022/11/13 02:54:53;;;;;;;7.90;2.05;;;6.30;99.90;;;;;;4946013;28;20204;-65
2022/11/13 02:57:38;;;;;;;4.47;1.73;;;6.20;99.90;;;;;;4942173;28;20058;-66
2022/11/13 03:00:24;;;;;;;2.97;1.92;;;6.20;99.90;;;;;;4941262;28;20110;-66
2022/11/13 03:03:10;;;;;;;5.53;2.22;;;6.20;99.90;;;;;;4948199;28;20113;-66
2022/11/13 03:05:55;;;;;;;5.78;2.58;;;6.20;99.90;;;;;;4945155;28;20062;-71
2022/11/13 03:08:41;;;;;;;5.55;2.20;;;6.10;99.90;;;;;;4946866;28;20058;-67
2022/11/13 03:11:26;;;;;;;9.18;2.92;;;6.10;99.90;;;;;;4947185;28;20446;-65
2022/11/13 03:14:12;;;;;;;2.97;1.73;;;6.10;99.90;;;;;;4938825;28;20167;-68
2022/11/13 03:16:57;;;;;;;15.90;2.88;;;6.10;99.90;;;;;;4949190;28;20125;-65
2022/11/13 03:19:43;;;;;;;3.75;2.40;;;6.10;99.90;;;;;;4948451;28;20046;-65
2022/11/13 03:22:28;;;;;;;4.10;1.80;;;6.10;99.90;;;;;;4945708;28;20066;-73
2022/11/13 03:25:15;;;;;;;4.28;1.98;;;6.00;99.90;;;;;;4944933;28;20560;-71
2022/11/13 03:28:00;;;;;;;2.03;1.75;;;6.00;99.90;;;;;;4947431;28;20163;-66
2022/11/13 03:30:46;;;;;;;3.92;2.78;;;6.00;99.90;;;;;;4937642;28;20050;-66
2022/11/13 03:33:32;;;;;;;15.02;3.40;;;6.00;99.90;;;;;;4942784;28;20054;-66
2022/11/13 03:36:18;;;;;;;4.55;2.63;;;6.00;99.90;;;;;;4943882;28;20105;-70
2022/11/13 03:39:04;;;;;;;5.95;3.00;;;6.00;99.90;;;;;;4948073;28;20069;-65
2022/11/13 03:41:49;;;;;;;3.95;2.47;;;6.00;99.90;;;;;;4946251;28;20054;-74
2022/11/13 03:44:35;;;;;;;8.45;3.35;;;6.00;99.90;;;;;;4938958;28;20469;-65
2022/11/13 03:47:20;;;;;;;14.15;3.67;;;6.00;99.90;;;;;;4944010;28;20153;-66
2022/11/13 03:50:06;;;;;;;7.80;4.00;;;6.00;99.90;;;;;;4940077;28;20062;-66
2022/11/13 03:52:52;;;;;;;6.80;3.28;;;5.90;99.90;;;;;;4943162;28;20050;-66
2022/11/13 03:55:37;;;;;;;8.10;4.68;;;5.90;99.90;;;;;;4940451;28;20495;-69
2022/11/13 03:58:22;;;;;;;7.57;4.82;;;5.90;99.90;;;;;;4939535;28;20457;-70
2022/11/13 04:01:08;;;;;;;6.53;3.55;;;5.90;99.90;;;;;;4943819;28;20053;-73
2022/11/13 04:03:54;;;;;;;9.93;5.32;;;5.90;99.90;;;;;;4942908;28;20382;-66
2022/11/13 04:06:39;;;;;;;7.93;4.82;;;5.90;99.90;;;;;;4947847;28;20054;-65
2022/11/13 04:09:24;;;;;;;12.60;5.35;;;5.80;99.90;;;;;;4946805;28;20054;-69
2022/11/13 04:12:10;;;;;;;11.15;4.32;;;5.90;99.90;;;;;;4947252;28;20208;-68
2022/11/13 04:14:55;;;;;;;6.70;4.35;;;5.80;99.90;;;;;;4940689;28;20050;-66
2022/11/13 04:17:41;;;;;;;8.40;4.78;;;5.80;99.90;;;;;;4944479;28;20258;-66
2022/11/13 04:20:27;;;;;;;7.53;4.93;;;5.80;99.90;;;;;;4948732;28;20054;-69
2022/11/13 04:23:14;;;;;;;10.15;6.57;;;5.80;99.90;;;;;;4946992;28;20050;-65
2022/11/13 04:26:00;;;;;;;6.35;4.20;;;5.70;99.90;;;;;;4945159;28;20426;-66
2022/11/13 04:28:45;;;;;;;6.13;3.92;;;5.70;99.90;;;;;;4943260;28;20521;-66
2022/11/13 04:31:31;;;;;;;10.82;4.57;;;5.60;99.90;;;;;;4941516;28;20186;-70
2022/11/13 04:34:16;;;;;;;6.45;4.80;;;5.60;99.90;;;;;;4946069;28;20054;-72
2022/11/13 04:37:02;;;;;;;6.57;5.20;;;5.60;99.90;;;;;;4948030;28;20504;-67
2022/11/13 04:39:47;;;;;;;7.50;5.03;;;5.60;99.90;;;;;;4948180;28;20552;-65
2022/11/13 04:42:48;;;;;;;7.65;4.57;;;5.50;99.90;;;;;;4944433;28;20067;-67
2022/11/13 04:45:34;;;;;;;7.30;4.68;;;5.50;99.90;;;;;;4947771;28;20106;-65
2022/11/13 04:48:19;;;;;;;14.55;5.03;;;5.40;99.90;;;;;;4942094;28;20103;-67
2022/11/13 04:51:05;;;;;;;8.07;5.22;;;5.40;99.90;;;;;;4944309;28;20485;-66
2022/11/13 04:53:51;;;;;;;7.63;4.40;;;5.40;99.90;;;;;;4948136;28;20045;-67
2022/11/13 04:56:36;;;;;;;7.28;3.83;;;5.40;99.90;;;;;;4944853;28;20046;-69
2022/11/13 04:59:23;;;;;;;6.93;3.70;;;5.30;99.90;;;;;;4947869;28;20871;-70
2022/11/13 05:02:08;;;;;;;5.78;4.18;;;5.20;99.90;;;;;;4946384;28;20165;-66
2022/11/13 05:04:54;;;;;;;6.38;3.05;;;5.30;99.90;;;;;;4942607;28;20373;-65
2022/11/13 05:07:41;;;;;;;9.27;3.40;;;5.20;99.90;;;;;;4941927;28;20055;-68
2022/11/13 05:10:27;;;;;;;7.60;3.85;;;5.20;99.90;;;;;;4943957;28;20066;-66
2022/11/13 05:13:12;;;;;;;13.55;3.30;;;5.20;99.90;;;;;;4943670;28;20183;-66
2022/11/13 05:16:03;;;;;;;17.60;3.78;;;5.20;99.90;;;;;;4944868;28;20154;-68
2022/11/13 05:18:49;;;;;;;4.93;3.15;;;5.10;99.90;;;;;;4947433;28;20477;-65
2022/11/13 05:21:36;;;;;;;11.65;4.30;;;5.10;99.90;;;;;;4948660;28;20129;-66
2022/11/13 05:24:21;;;;;;;8.75;3.20;;;5.10;99.90;;;;;;4945331;28;20054;-65
2022/11/13 05:27:07;;;;;;;7.13;2.30;;;5.10;99.90;;;;;;4948919;28;20238;-67
2022/11/13 05:30:00;;;;;;;4.70;2.63;;;5.10;99.90;;;;;;4938584;28;20160;-66
2022/11/13 05:32:45;;;;;;;9.60;3.58;;;5.10;99.90;;;;;;4939713;28;20050;-67
2022/11/13 05:35:31;;;;;;;10.32;3.08;;;5.10;99.90;;;;;;4948962;28;20054;-66
2022/11/13 05:38:16;;;;;;;8.82;3.58;;;5.10;99.90;;;;;;4949662;28;20440;-76
2022/11/13 05:41:17;;;;;;;11.93;3.85;;;5.00;99.90;;;;;;4945522;28;20046;-71
2022/11/13 05:44:02;;;;;;;;;;;5.00;99.90;;;;;;4948969;28;20481;-70
2022/11/13 05:46:47;;;;;;;5.82;3.20;;;5.00;99.90;;;;;;4950223;28;19924;-65
2022/11/13 05:49:33;;;;;;;4.95;3.08;;;5.00;99.90;;;;;;4948523;28;20049;-65
2022/11/13 05:52:19;;;;;;;6.05;2.80;;;5.00;99.90;;;;;;4943025;28;20055;-65
2022/11/13 05:55:05;;;;;;;14.73;4.35;;;5.00;99.90;;;;;;4952789;28;20046;-69
2022/11/13 05:57:50;;;;;;;11.80;4.40;;;5.00;99.90;;;;;;4945472;28;20501;-69
2022/11/13 06:00:36;;;;;;;5.95;3.47;;;5.00;99.90;;;;;;4946875;28;20097;-65
2022/11/13 06:03:21;;;;;;;4.22;2.78;;;5.00;99.90;;;;;;4943973;28;20054;-67
2022/11/13 06:06:09;;;;;;;7.53;3.25;;;4.90;99.90;;;;;;4947838;28;20077;-66
2022/11/13 06:08:56;;;;;;;5.50;3.17;;;4.90;99.90;;;;;;4947751;28;20597;-68
2022/11/13 06:11:43;;;;;;;5.88;3.72;;;4.90;99.90;;;;;;4948721;28;20122;-66
2022/11/13 06:14:28;;;;;;;7.32;3.75;;;4.90;99.90;;;;;;4945554;28;20491;-65
2022/11/13 06:17:13;;;;;;;7.30;4.47;;;4.90;99.90;;;;;;4950272;28;20517;-66
2022/11/13 06:19:59;;;;;;;9.93;5.15;;;4.90;99.90;;;;;;4949186;28;21502;-69
2022/11/13 06:22:44;;;;;;;7.78;4.57;;;4.90;99.90;;;;;;4944583;28;20422;-65
2022/11/13 06:25:30;;;;;;;10.02;4.30;;;4.90;99.90;;;;;;4945083;28;20473;-71
2022/11/13 06:28:16;;;;;;;14.25;5.85;;;4.90;99.90;;;;;;4949932;28;20137;-66
2022/11/13 06:31:07;;;;;;;14.13;6.47;;;5.00;99.90;;;;;;4947725;28;20050;-69
2022/11/13 06:33:53;;;;;;;14.57;7.15;;;5.00;99.90;;;;;;4946928;28;20182;-67
2022/11/13 06:36:38;;;;;;;14.48;6.55;;;5.00;99.90;;;;;;4946522;28;20074;-66
2022/11/13 06:39:24;;;;;;;20.73;6.78;;;5.00;99.90;;;;;;4949141;28;20051;-69
2022/11/13 06:42:09;;;;;;;15.82;9.50;;;5.00;99.90;;;;;;4945757;28;20074;-68
2022/11/13 06:44:55;;;;;;;9.15;5.88;;;5.00;99.90;;;;;;4949316;28;20050;-67
2022/11/13 06:47:40;;;;;;;15.43;9.65;;;5.00;99.90;;;;;;4947614;28;20683;-73
2022/11/13 06:50:26;;;;;;;11.07;6.50;;;5.00;99.90;;;;;;4946025;28;20511;-67
2022/11/13 06:53:11;;;;;;;12.98;5.68;;;5.10;99.90;;;;;;4944282;28;20723;-68
2022/11/13 06:55:57;;;;;;;10.23;5.47;;;5.10;99.90;;;;;;4943792;28;20054;-69
2022/11/13 06:58:43;;;;;;;8.48;4.75;;;5.10;99.90;;;;;;4943163;28;20086;-65
2022/11/13 07:01:29;;;;;;;8.73;6.07;;;5.10;99.90;;;;;;4941544;28;20055;-65
2022/11/13 07:04:14;;;;;;;12.63;7.03;;;5.10;99.90;;;;;;4941495;28;20049;-73
2022/11/13 07:07:00;;;;;;;8.25;5.55;;;5.20;99.90;;;;;;4949822;28;20090;-65
2022/11/13 07:09:45;;;;;;;16.10;4.97;;;5.30;99.90;;;;;;4946520;28;20060;-69
2022/11/13 07:12:31;;;;;;;18.60;6.05;;;5.40;99.90;;;;;;4948198;28;20046;-65
2022/11/13 07:15:16;;;;;;;19.20;6.32;;;5.60;99.90;;;;;;4945305;28;20061;-67
2022/11/13 07:18:03;;;;;;;19.45;6.53;;;5.80;99.90;;;;;;4950460;28;20712;-70
2022/11/13 07:20:48;;;;;;;17.08;6.22;;;6.00;99.90;;;;;;4948154;28;20507;-65
2022/11/13 07:23:35;;;;;;;16.63;7.43;;;6.10;99.90;;;;;;4946151;28;20043;-65
2022/11/13 07:26:21;;;;;;;25.20;9.80;;;6.40;99.90;;;;;;4942348;28;20066;-69
2022/11/13 07:29:06;;;;;;;10.35;7.97;;;6.40;99.90;;;;;;4946997;28;20050;-67
2022/11/13 07:31:52;;;;;;;39.85;13.20;;;6.50;99.90;;;;;;4931999;28;20129;-70
2022/11/13 07:34:37;;;;;;;26.95;12.35;;;6.50;99.90;;;;;;4936447;28;20058;-65
2022/11/13 07:37:23;;;;;;;35.25;12.65;;;6.60;99.90;;;;;;4947064;28;20102;-67
2022/11/13 07:40:09;;;;;;;28.05;12.13;;;6.60;99.90;;;;;;4948879;28;20045;-66
2022/11/13 07:42:59;;;;;;;28.52;11.13;;;6.60;99.90;;;;;;4949807;28;20256;-67
2022/11/13 07:45:45;;;;;;;15.15;8.40;;;6.70;99.90;;;;;;4942596;28;20058;-65
2022/11/13 07:48:30;;;;;;;12.10;5.25;;;6.70;99.90;;;;;;4947308;28;20433;-68
2022/11/13 07:51:16;;;;;;;12.10;7.28;;;6.70;99.90;;;;;;4945874;28;20122;-75
2022/11/13 07:54:02;;;;;;;9.18;5.88;;;6.80;99.90;;;;;;4948715;28;20054;-67
2022/11/13 07:56:47;;;;;;;5.55;4.72;;;6.80;99.90;;;;;;4943103;28;20145;-68
2022/11/13 07:59:33;;;;;;;8.40;6.07;;;6.80;99.90;;;;;;4948805;28;20723;-66
2022/11/13 08:02:18;;;;;;;8.60;6.05;;;6.80;99.90;;;;;;4945783;28;20176;-70
2022/11/13 08:05:10;;;;;;;8.82;6.40;;;6.80;99.90;;;;;;4945871;28;20054;-65
2022/11/13 08:07:56;;;;;;;7.43;5.72;;;6.80;99.90;;;;;;4946797;28;20102;-71
2022/11/13 08:10:41;;;;;;;14.88;7.75;;;6.90;99.90;;;;;;4943756;28;20137;-68
2022/11/13 08:13:27;;;;;;;13.30;10.48;;;6.90;99.90;;;;;;4946780;28;20358;-65
2022/11/13 08:16:13;;;;;;;24.55;16.77;;;7.00;99.90;;;;;;4945097;28;20050;-67
2022/11/13 08:18:58;;;;;;;19.52;16.50;;;7.00;99.90;;;;;;4950083;28;20050;-66
2022/11/13 08:21:44;;;;;;;15.20;13.13;;;7.10;99.90;;;;;;4948923;28;20445;-65
2022/11/13 08:24:29;;;;;;;17.05;14.73;;;7.00;99.90;;;;;;4943156;28;20058;-65
2022/11/13 08:27:15;;;;;;;16.85;14.88;;;7.10;99.90;;;;;;4946700;28;20154;-65
2022/11/13 08:30:00;;;;;;;16.35;14.65;;;7.10;99.90;;;;;;4946478;28;20182;-68
2022/11/13 08:32:47;;;;;;;15.55;12.70;;;7.10;99.90;;;;;;4947067;28;20049;-69
2022/11/13 08:35:32;;;;;;;12.80;11.43;;;7.20;99.90;;;;;;4946501;28;20126;-71
2022/11/13 08:38:17;;;;;;;13.10;10.23;;;7.20;99.90;;;;;;4944719;28;20054;-70
2022/11/13 08:41:05;;;;;;;10.57;9.48;;;7.30;99.90;;;;;;4948029;28;20131;-69
2022/11/13 08:43:53;;;;;;;;;;;7.30;99.90;;;;;;4949185;28;20050;-72
2022/11/13 08:46:39;;;;;;;9.75;8.55;;;7.40;99.90;;;;;;4945107;28;19924;-65
2022/11/13 08:49:24;;;;;;;8.57;7.72;;;7.40;99.90;;;;;;4946007;28;20050;-67
2022/11/13 08:52:09;;;;;;;25.73;10.70;;;7.50;99.90;;;;;;4942545;28;20383;-68
2022/11/13 08:54:55;;;;;;;25.25;9.77;;;7.50;99.90;;;;;;4944334;28;20405;-71
2022/11/13 08:57:40;;;;;;;21.70;9.38;;;7.60;99.90;;;;;;4943125;28;20142;-66
2022/11/13 09:00:27;;;;;;;8.45;7.20;;;7.70;99.90;;;;;;4941453;28;20058;-68
2022/11/13 09:03:12;;;;;;;13.65;9.52;;;7.80;99.90;;;;;;4944514;28;20050;-69
2022/11/13 09:05:58;;;;;;;8.05;7.25;;;7.80;99.90;;;;;;4945070;28;20058;-75
2022/11/13 09:08:43;;;;;;;8.57;6.35;;;7.90;99.90;;;;;;4943340;28;20050;-66
2022/11/13 09:11:29;;;;;;;11.05;6.90;;;8.00;99.90;;;;;;4947976;28;20346;-65
2022/11/13 09:14:14;;;;;;;11.90;6.30;;;8.00;99.90;;;;;;4944846;28;20046;-71
2022/11/13 09:17:00;;;;;;;6.43;5.93;;;8.10;99.90;;;;;;4947279;28;20245;-69
2022/11/13 09:19:46;;;;;;;11.55;5.35;;;8.10;99.90;;;;;;4945026;28;20110;-65
2022/11/13 09:22:32;;;;;;;19.40;6.40;;;8.10;99.90;;;;;;4944996;28;20078;-66
2022/11/13 09:25:18;;;;;;;4.65;4.22;;;8.10;99.90;;;;;;4946194;28;20046;-71
2022/11/13 09:28:04;;;;;;;39.95;6.50;;;8.10;99.90;;;;;;4947820;28;20121;-68
2022/11/13 09:30:50;;;;;;;9.75;4.72;;;8.20;99.90;;;;;;4946029;28;20493;-65
2022/11/13 09:33:36;;;;;;;47.20;7.53;;;8.20;99.90;;;;;;4947372;28;20095;-68
2022/11/13 09:36:21;;;;;;;31.13;7.30;;;8.30;99.90;;;;;;4937171;28;20430;-72
2022/11/13 09:39:07;;;;;;;5.95;4.95;;;8.30;99.90;;;;;;4943633;28;20062;-66
2022/11/13 09:41:57;;;;;;;11.70;5.03;;;8.30;99.90;;;;;;4943045;28;20070;-65
2022/11/13 09:45:06;;;;;;;14.43;5.55;;;8.30;99.90;;;;;;4941040;28;20050;-65
2022/11/13 09:47:54;;;;;;;12.13;5.65;;;8.30;99.90;;;;;;4949192;28;20203;-68
2022/11/13 09:50:40;;;;;;;36.45;7.45;;;8.30;99.90;;;;;;4946818;28;20459;-68
2022/11/13 09:53:31;;;;;;;10.27;4.35;;;8.30;99.90;;;;;;4948789;28;20202;-67
2022/11/13 09:56:25;;;;;;;32.38;6.35;;;8.30;99.90;;;;;;4946668;28;20058;-69
2022/11/13 09:59:25;;;;;;;13.90;4.35;;;8.50;99.90;;;;;;4943898;28;20081;-67
2022/11/13 10:02:23;;;;;;;15.23;5.70;;;8.60;99.90;;;;;;4972813;28;20051;-70
2022/11/13 10:05:14;;;;;;;19.52;5.82;;;8.70;99.90;;;;;;4948148;28;20102;-68
2022/11/13 10:08:25;;;;;;;14.50;6.47;;;8.70;99.90;;;;;;4944954;28;20062;-67
2022/11/13 10:11:34;;;;;;;15.18;5.93;;;8.90;99.90;;;;;;4970775;28;20054;-67
2022/11/13 10:14:30;;;;;;;8.32;5.28;;;8.90;99.90;;;;;;4945833;28;20062;-67
2022/11/13 10:17:25;;;;;;;7.18;4.95;;;8.90;99.90;;;;;;4947800;28;20436;-69
2022/11/13 10:20:36;;;;;;;6.15;3.88;;;8.90;99.90;;;;;;4942756;28;20054;-67
2022/11/13 10:23:26;;;;;;;16.42;4.70;;;8.80;99.90;;;;;;4945515;28;20043;-67
2022/11/13 10:26:20;;;;;;;19.55;5.25;;;8.80;99.90;;;;;;4944121;28;20127;-70
2022/11/13 10:29:15;;;;;;;6.53;4.97;;;8.90;99.90;;;;;;4946560;28;20046;-71
2022/11/13 10:32:23;;;;;;;7.47;4.55;;;9.00;99.90;;;;;;4946574;28;20725;-66
2022/11/13 10:35:46;;;;;;;6.63;4.65;;;9.00;99.90;;;;;;4944527;28;20054;-66
2022/11/13 10:38:31;;;;;;;23.75;6.60;;;8.90;99.90;;;;;;4943509;28;20093;-69
2022/11/13 10:41:18;;;;;;;9.55;4.50;;;8.90;99.90;;;;;;4944179;28;20062;-69
2022/11/13 10:44:06;;;;;;;11.55;5.07;;;8.90;99.90;;;;;;4942511;28;20465;-70
2022/11/13 10:47:16;;;;;;;9.32;5.75;;;9.00;99.90;;;;;;4940940;28;20047;-68
2022/11/13 10:50:26;;;;;;;9.38;6.22;;;9.00;99.90;;;;;;4942771;28;20062;-66
2022/11/13 10:53:17;;;;;;;8.15;4.85;;;9.20;99.90;;;;;;4945160;28;20062;-67
2022/11/13 10:56:20;;;;;;;13.32;5.68;;;9.30;99.90;;;;;;4946052;28;20062;-70
2022/11/13 10:59:14;;;;;;;6.68;5.03;;;9.50;99.90;;;;;;4941470;28;20206;-67
2022/11/13 11:02:10;;;;;;;8.18;5.75;;;9.50;99.90;;;;;;4947649;28;20326;-68
2022/11/13 11:05:17;;;;;;;7.53;4.90;;;9.40;99.90;;;;;;4939248;28;20058;-70
2022/11/13 11:08:07;;;;;;;4.35;3.88;;;9.30;99.90;;;;;;4942248;28;20219;-67
2022/11/13 11:14:32;;;;;;;9.10;5.07;;;9.30;99.90;;;;;;4958505;28;20074;-68
2022/11/13 11:17:21;;;;;;;7.70;4.80;;;9.30;99.90;;;;;;4965101;28;20185;-66
2022/11/13 11:20:22;;;;;;;6.10;4.95;;;9.30;99.90;;;;;;4965445;28;20200;-70
2022/11/13 11:23:15;;;;;;;;;;;9.30;99.90;;;;;;4952021;28;20074;-69
2022/11/13 11:26:12;;;;;;;6.15;4.13;;;9.30;99.90;;;;;;4946791;28;19933;-67
2022/11/13 11:29:05;;;;;;;6.68;5.40;;;9.30;99.90;;;;;;4941422;28;20088;-68
2022/11/13 11:32:05;;;;;;;6.07;3.83;;;9.30;99.90;;;;;;4942603;28;20153;-67
2022/11/13 11:35:19;;;;;;;7.88;6.15;;;9.30;99.90;;;;;;4945253;28;21727;-68
2022/11/13 11:38:27;;;;;;;6.50;5.18;;;9.30;99.90;;;;;;4941192;28;20078;-66
2022/11/13 11:41:18;;;;;;;6.15;4.90;;;9.30;99.90;;;;;;4941084;28;20046;-68
2022/11/13 11:44:30;;;;;;;6.57;5.63;;;9.30;99.90;;;;;;4940003;28;20089;-70
2022/11/13 11:47:16;;;;;;;6.40;5.43;;;9.30;99.90;;;;;;4963805;28;20055;-69
2022/11/13 11:50:03;;;;;;;4.97;4.40;;;9.30;99.90;;;;;;4960785;28;20093;-66
2022/11/13 11:53:36;;;;;;;5.13;4.38;;;9.40;99.90;;;;;;4962697;28;20053;-67
2022/11/13 11:56:26;;;;;;;6.03;4.57;;;9.50;99.90;;;;;;4962879;28;20417;-66
2022/11/13 11:59:18;;;;;;;6.55;4.15;;;9.50;99.90;;;;;;4961318;28;20049;-67
2022/11/13 12:02:38;;;;;;;6.43;4.97;;;9.50;99.90;;;;;;4961675;28;20057;-68
2022/11/13 12:05:43;;;;;;;9.55;4.80;;;9.50;99.90;;;;;;4943029;28;20107;-66
2022/11/13 12:08:43;;;;;;;5.38;4.28;;;9.50;99.90;;;;;;4941587;28;20254;-66
2022/11/13 12:12:08;;;;;;;10.00;5.13;;;9.50;99.90;;;;;;4938895;28;20054;-69
2022/11/13 12:15:08;;;;;;;7.05;5.15;;;9.50;99.90;;;;;;4927547;28;20237;-67
2022/11/13 12:18:24;;;;;;;8.50;4.67;;;9.50;99.90;;;;;;4943352;28;20437;-69
2022/11/13 12:21:30;;;;;;;6.35;5.75;;;9.50;99.90;;;;;;4943792;28;20070;-68
2022/11/13 12:24:36;;;;;;;9.00;5.22;;;9.50;99.90;;;;;;4941532;28;20445;-70
2022/11/13 12:27:27;;;;;;;47.75;8.02;;;9.50;99.90;;;;;;4940129;28;20875;-68
2022/11/13 12:30:44;;;;;;;22.35;7.93;;;9.40;99.90;;;;;;4937443;28;20097;-66
2022/11/13 12:34:14;;;;;;;8.48;6.15;;;9.30;99.90;;;;;;4924061;28;20258;-70
2022/11/13 12:37:04;;;;;;;8.20;6.25;;;9.30;99.90;;;;;;4919542;29;20090;-68
2022/11/13 12:39:57;;;;;;;18.17;7.28;;;9.30;99.90;;;;;;4939863;28;20167;-69
2022/11/13 12:42:49;;;;;;;66.38;10.43;;;9.30;99.90;;;;;;4957286;28;20050;-68
2022/11/13 12:45:37;;;;;;;16.70;6.03;;;9.10;99.90;;;;;;4959469;28;20050;-66
2022/11/13 12:48:31;;;;;;;40.30;7.93;;;9.10;99.90;;;;;;4952922;28;20440;-66
2022/11/13 12:51:17;;;;;;;27.83;8.05;;;9.10;99.90;;;;;;4959666;28;20065;-69
2022/11/13 12:54:03;;;;;;;22.60;7.88;;;9.10;99.90;;;;;;4953988;28;20174;-69
2022/11/13 12:56:49;;;;;;;12.25;7.63;;;9.10;99.90;;;;;;4956833;28;20050;-69
2022/11/13 12:59:40;;;;;;;11.13;7.95;;;9.10;99.90;;;;;;4960310;28;20050;-66
2022/11/13 13:02:46;;;;;;;12.02;7.30;;;9.10;99.90;;;;;;4956039;28;20049;-69
2022/11/13 13:05:51;;;;;;;8.10;6.22;;;9.10;99.90;;;;;;4960110;28;20054;-67
2022/11/13 13:08:45;;;;;;;5.75;5.07;;;9.10;99.90;;;;;;4958830;28;20054;-66
2022/11/13 13:11:54;;;;;;;7.07;5.65;;;9.10;99.90;;;;;;4962524;28;20050;-67
2022/11/13 13:14:55;;;;;;;10.73;6.03;;;9.10;99.90;;;;;;4960844;28;20551;-66
2022/11/13 13:17:41;;;;;;;6.53;5.63;;;9.10;99.90;;;;;;4958406;28;20050;-68
2022/11/13 13:20:34;;;;;;;7.90;5.25;;;9.10;99.90;;;;;;4958773;28;20046;-70
2022/11/13 13:23:28;;;;;;;11.80;5.45;;;9.10;99.90;;;;;;4961903;28;20058;-72
2022/11/13 13:26:25;;;;;;;11.52;5.10;;;9.10;99.90;;;;;;4961076;28;20053;-66
2022/11/13 13:29:19;;;;;;;7.68;5.72;;;9.10;99.90;;;;;;4960176;28;20054;-68
2022/11/13 13:32:24;;;;;;;6.60;5.70;;;9.10;99.90;;;;;;4962534;28;20158;-65
2022/11/13 13:35:18;;;;;;;9.50;6.30;;;9.10;99.90;;;;;;4962604;28;20133;-62
2022/11/13 13:38:30;;;;;;;18.08;7.95;;;9.10;99.90;;;;;;4960566;28;20511;-64
2022/11/13 13:41:57;;;;;;;9.85;6.85;;;9.10;99.90;;;;;;4946945;28;20050;-71
2022/11/13 13:45:01;;;;;;;12.82;7.90;;;9.10;99.90;;;;;;4941005;28;20354;-64
2022/11/13 13:47:49;;;;;;;21.15;7.95;;;9.00;99.90;;;;;;4940669;28;20046;-68
2022/11/13 13:50:41;;;;;;;25.95;7.82;;;9.00;99.90;;;;;;4938661;28;20620;-68
2022/11/13 13:53:32;;;;;;;13.43;7.45;;;9.00;99.90;;;;;;4948113;28;20194;-71
2022/11/13 13:56:20;;;;;;;11.82;7.38;;;9.00;99.90;;;;;;4945421;28;20103;-69
2022/11/13 13:59:24;;;;;;;9.27;8.30;;;8.90;99.90;;;;;;4947716;28;20054;-68
2022/11/13 14:02:18;;;;;;;11.00;7.20;;;8.90;99.90;;;;;;4943309;28;20061;-68
2022/11/13 14:05:22;;;;;;;16.10;7.53;;;8.90;99.90;;;;;;4943681;28;20190;-69
2022/11/13 14:08:17;;;;;;;13.95;8.27;;;8.80;99.90;;;;;;4943838;28;20182;-69
2022/11/13 14:11:16;;;;;;;9.68;7.00;;;8.70;99.90;;;;;;4961104;28;20193;-68
2022/11/13 14:14:14;;;;;;;7.38;6.53;;;8.60;99.90;;;;;;4961956;28;20137;-71
2022/11/13 14:17:02;;;;;;;8.80;6.95;;;8.60;99.90;;;;;;4963300;28;20057;-69
2022/11/13 14:19:49;;;;;;;9.50;8.23;;;8.50;99.90;;;;;;4964110;28;20054;-71
2022/11/13 14:22:35;;;;;;;11.45;8.25;;;8.50;99.90;;;;;;4962720;28;20181;-72
2022/11/13 14:25:24;;;;;;;13.25;9.80;;;8.50;99.90;;;;;;4964672;28;20540;-72
2022/11/13 14:28:30;;;;;;;10.02;8.98;;;8.40;99.90;;;;;;4961102;28;20093;-70
2022/11/13 14:31:16;;;;;;;10.52;8.80;;;8.30;99.90;;;;;;4965697;28;20468;-69
2022/11/13 14:34:13;;;;;;;11.10;9.02;;;8.20;99.90;;;;;;4965698;28;20500;-70
2022/11/13 14:37:20;;;;;;;9.10;6.22;;;8.20;99.90;;;;;;4962359;28;20835;-71
2022/11/13 14:40:29;;;;;;;18.27;7.03;;;8.20;99.90;;;;;;4965928;28;20162;-69
2022/11/13 14:43:28;;;;;;;12.55;7.15;;;8.10;99.90;;;;;;4939059;28;20081;-68
2022/11/13 14:46:32;;;;;;;9.63;7.05;;;8.00;99.90;;;;;;4943948;28;20147;-71
2022/11/13 14:49:28;;;;;;;37.75;12.20;;;7.90;99.90;;;;;;4945813;28;20299;-69
2022/11/13 14:52:27;;;;;;;70.30;14.98;;;7.90;99.90;;;;;;4940201;28;20058;-69
2022/11/13 14:55:28;;;;;;;16.48;9.10;;;7.80;99.90;;;;;;4946134;28;20525;-71
2022/11/13 14:58:13;;;;;;;88.22;13.25;;;7.80;99.90;;;;;;4942309;28;20050;-69